createdAt,value
2022-09-11T00:03:47.381Z,100191.05
2022-09-11T00:07:16.289Z,100188.92
2022-09-11T00:10:44.461Z,100194.09
2022-09-11T00:14:14.343Z,100192.15
2022-09-11T00:17:42.200Z,100191.50
2022-09-11T00:21:10.382Z,100189.95
2022-09-11T00:24:36.980Z,100188.83
2022-09-11T00:28:04.353Z,100188.02
2022-09-11T00:31:32.725Z,100185.65
2022-09-11T00:35:00.609Z,100183.73
2022-09-11T00:38:28.572Z,100185.70
2022-09-11T00:41:55.504Z,100182.64
2022-09-11T00:45:26.419Z,100180.81
2022-09-11T00:48:54.904Z,100181.77
2022-09-11T00:52:27.406Z,100178.14
2022-09-11T00:55:56.830Z,100174.61
2022-09-11T00:59:27.272Z,100173.84
2022-09-11T01:02:56.548Z,100172.34
2022-09-11T01:06:24.450Z,100174.09
2022-09-11T01:09:51.915Z,100171.04
2022-09-11T01:13:34.666Z,100170.55
2022-09-11T01:17:12.934Z,100164.67
2022-09-11T01:20:59.636Z,100161.92
2022-09-11T01:24:45.671Z,100161.34
2022-09-11T01:28:17.071Z,100161.22
2022-09-11T01:31:52.704Z,100155.56
2022-09-11T01:35:27.510Z,100150.58
2022-09-11T01:38:58.721Z,100137.62
2022-09-11T01:42:33.918Z,100133.15
2022-09-11T01:46:04.790Z,100133.45
2022-09-11T01:49:40.822Z,100134.84
2022-09-11T01:53:14.362Z,100136.61
2022-09-11T01:56:49.582Z,100136.89
2022-09-11T02:00:18.987Z,100133.44
2022-09-11T02:03:57.016Z,100129.33
2022-09-11T02:07:26.939Z,100123.48
2022-09-11T02:11:04.209Z,100126.42
2022-09-11T02:14:39.068Z,100126.83
2022-09-11T02:18:14.727Z,100130.16
2022-09-11T02:21:42.020Z,100130.60
2022-09-11T02:25:10.303Z,100129.85
2022-09-11T02:28:39.199Z,100129.13
2022-09-11T02:32:07.328Z,100129.19
2022-09-11T02:35:43.800Z,100130.61
2022-09-11T02:39:27.701Z,100128.49
2022-09-11T02:43:17.125Z,100127.90
2022-09-11T02:47:07.643Z,100122.65
2022-09-11T02:50:42.581Z,100121.85
2022-09-11T02:54:26.076Z,100116.63
2022-09-11T02:58:01.477Z,100116.08
2022-09-11T03:01:32.115Z,100115.30
2022-09-11T03:05:00.406Z,100116.62
2022-09-11T03:08:27.294Z,100113.30
2022-09-11T03:11:55.531Z,100115.06
2022-09-11T03:15:24.030Z,100112.39
2022-09-11T03:18:52.084Z,100111.41
2022-09-11T03:22:19.093Z,100108.96
2022-09-11T03:25:47.378Z,100108.30
2022-09-11T03:29:14.681Z,100109.17
2022-09-11T03:32:43.594Z,100107.45
2022-09-11T03:36:13.197Z,100105.34
2022-09-11T03:39:40.178Z,100110.80
2022-09-11T03:43:07.156Z,100105.30
2022-09-11T03:46:35.359Z,100110.27
2022-09-11T03:50:02.901Z,100112.64
2022-09-11T03:53:30.348Z,100118.30
2022-09-11T03:56:59.282Z,100115.35
2022-09-11T04:00:27.720Z,100114.67
2022-09-11T04:03:55.132Z,100113.62
2022-09-11T04:07:27.508Z,100120.67
2022-09-11T04:11:00.098Z,100122.21
2022-09-11T04:14:28.330Z,100122.30
2022-09-11T04:17:56.970Z,100122.78
2022-09-11T04:21:23.814Z,100122.11
2022-09-11T04:24:52.200Z,100123.20
2022-09-11T04:28:20.012Z,100124.02
2022-09-11T04:31:46.914Z,100126.28
2022-09-11T04:35:15.074Z,100126.25
2022-09-11T04:38:51.168Z,100122.02
2022-09-11T04:42:19.096Z,100123.64
2022-09-11T04:45:45.921Z,100128.61
2022-09-11T04:49:14.989Z,100133.09
2022-09-11T04:52:42.564Z,100131.83
2022-09-11T04:56:13.941Z,100136.66
2022-09-11T04:59:45.221Z,100136.21
2022-09-11T05:03:14.010Z,100139.34
2022-09-11T05:06:41.182Z,100138.11
2022-09-11T05:10:11.555Z,100135.10
2022-09-11T05:13:38.759Z,100137.60
2022-09-11T05:17:06.689Z,100138.86
2022-09-11T05:20:36.333Z,100141.46
2022-09-11T05:24:04.691Z,100136.54
2022-09-11T05:27:33.453Z,100137.99
2022-09-11T05:31:02.739Z,100140.05
2022-09-11T05:34:30.250Z,100137.77
2022-09-11T05:37:57.817Z,100139.40
2022-09-11T05:41:25.320Z,100143.75
2022-09-11T05:44:53.315Z,100146.42
2022-09-11T05:48:20.116Z,100150.55
2022-09-11T05:51:48.446Z,100154.74
2022-09-11T05:55:16.833Z,100154.71
2022-09-11T05:58:43.824Z,100156.52
2022-09-11T06:02:13.426Z,100158.52
2022-09-11T06:05:44.393Z,100162.66
2022-09-11T06:09:12.154Z,100167.21
2022-09-11T06:12:40.419Z,100165.47
2022-09-11T06:16:09.287Z,100167.91
2022-09-11T06:19:36.080Z,100168.00
2022-09-11T06:23:09.021Z,100173.84
2022-09-11T06:26:37.840Z,100169.64
2022-09-11T06:30:04.879Z,100176.52
2022-09-11T06:33:36.977Z,100180.19
2022-09-11T06:37:03.827Z,100182.16
2022-09-11T06:40:31.735Z,100180.63
2022-09-11T06:43:59.653Z,100181.23
2022-09-11T06:47:27.994Z,100182.50
2022-09-11T06:50:55.648Z,100185.23
2022-09-11T06:54:22.610Z,100185.11
2022-09-11T06:57:49.919Z,100187.77
2022-09-11T07:01:22.827Z,100194.00
2022-09-11T07:04:54.929Z,100195.11
2022-09-11T07:08:24.966Z,100198.67
2022-09-11T07:11:54.357Z,100200.78
2022-09-11T07:15:22.395Z,100203.23
2022-09-11T07:18:50.606Z,100205.19
2022-09-11T07:22:20.119Z,100204.98
2022-09-11T07:25:51.167Z,100208.52
2022-09-11T07:29:18.809Z,100206.71
2022-09-11T07:32:47.445Z,100209.09
2022-09-11T07:36:17.012Z,100213.02
2022-09-11T07:39:44.266Z,100213.79
2022-09-11T07:43:20.062Z,100214.13
2022-09-11T07:46:46.454Z,100217.42
2022-09-11T07:50:14.684Z,100219.32
2022-09-11T07:53:44.925Z,100222.80
2022-09-11T07:57:12.339Z,100227.66
2022-09-11T08:00:39.548Z,100227.71
2022-09-11T08:04:16.028Z,100226.77
2022-09-11T08:07:43.397Z,100231.60
2022-09-11T08:11:13.956Z,100238.66
2022-09-11T08:14:42.690Z,100238.80
2022-09-11T08:18:20.687Z,100244.13
2022-09-11T08:21:48.102Z,100245.30
2022-09-11T08:25:15.453Z,100245.55
2022-09-11T08:28:45.161Z,100241.11
2022-09-11T08:32:13.778Z,100243.53
2022-09-11T08:35:41.398Z,100243.60
2022-09-11T08:39:10.032Z,100247.41
2022-09-11T08:42:47.795Z,100249.23
2022-09-11T08:46:18.422Z,100249.57
2022-09-11T08:49:50.661Z,100245.79
2022-09-11T08:53:22.272Z,100251.60
2022-09-11T08:56:51.479Z,100249.53
2022-09-11T09:00:23.367Z,100245.27
2022-09-11T09:04:20.168Z,100246.80
2022-09-11T09:08:01.641Z,100251.67
2022-09-11T09:11:38.688Z,100242.69
2022-09-11T09:15:29.565Z,100251.13
2022-09-11T09:19:03.608Z,100248.40
2022-09-11T09:22:47.381Z,100249.47
2022-09-11T09:26:19.064Z,100254.34
2022-09-11T09:29:52.277Z,100253.17
2022-09-11T09:33:31.011Z,100246.39
2022-09-11T09:37:15.523Z,100249.06
2022-09-11T09:40:50.136Z,100255.96
2022-09-11T09:44:26.471Z,100252.40
2022-09-11T09:47:54.086Z,100254.55
2022-09-11T09:51:21.448Z,100256.05
2022-09-11T09:54:57.262Z,100251.83
2022-09-11T09:58:28.154Z,100255.12
2022-09-11T10:01:55.710Z,100257.60
2022-09-11T10:05:30.060Z,100255.29
2022-09-11T10:09:03.264Z,100257.80
2022-09-11T10:12:31.781Z,100265.10
2022-09-11T10:16:01.707Z,100262.35
2022-09-11T10:19:42.444Z,100259.96
2022-09-11T10:26:51.123Z,100248.80
2022-09-11T10:30:36.342Z,100254.91
2022-09-11T10:34:06.264Z,100251.70
2022-09-11T10:37:35.023Z,100249.91
2022-09-11T10:41:09.922Z,100245.80
2022-09-11T10:44:37.290Z,100247.83
2022-09-11T10:48:20.018Z,100250.83
2022-09-11T10:52:02.605Z,100253.58
2022-09-11T10:55:36.156Z,100249.69
2022-09-11T10:59:11.784Z,100250.69
2022-09-11T11:02:41.995Z,100246.52
2022-09-11T11:06:21.286Z,100249.17
2022-09-11T11:10:02.483Z,100247.02
2022-09-11T11:13:45.611Z,100252.14
2022-09-11T11:17:23.040Z,100254.56
2022-09-11T11:21:00.631Z,100256.77
2022-09-11T11:24:51.404Z,100265.30
2022-09-11T11:28:37.421Z,100265.54
2022-09-11T11:32:37.091Z,100270.61
2022-09-11T11:36:10.152Z,100265.17
2022-09-11T11:39:49.216Z,100262.92
2022-09-11T11:43:20.203Z,100264.17
2022-09-11T11:46:52.406Z,100261.84
2022-09-11T11:50:29.854Z,100257.34
2022-09-11T11:54:05.929Z,100259.21
2022-09-11T11:57:41.893Z,100254.26
2022-09-11T12:01:18.666Z,100254.98
2022-09-11T12:04:52.537Z,100257.02
2022-09-11T12:08:20.374Z,100259.65
2022-09-11T12:11:52.536Z,100258.13
2022-09-11T12:15:24.266Z,100252.95
2022-09-11T12:19:20.044Z,100247.97
2022-09-11T12:22:50.604Z,100249.49
2022-09-11T12:26:25.002Z,100253.62
2022-09-11T12:30:08.846Z,100253.15
2022-09-11T12:33:59.449Z,100250.61
2022-09-11T12:37:33.227Z,100250.51
2022-09-11T12:41:07.507Z,100244.86
2022-09-11T12:44:55.884Z,100242.32
2022-09-11T12:48:26.964Z,100253.98
2022-09-11T12:51:59.753Z,100256.71
2022-09-11T12:55:33.911Z,100252.58
2022-09-11T12:59:08.177Z,100250.98
2022-09-11T13:02:39.822Z,100252.94
2022-09-11T13:06:10.513Z,100256.02
2022-09-11T13:09:43.486Z,100257.98
2022-09-11T13:13:45.143Z,100255.77
2022-09-11T13:17:22.660Z,100247.77
2022-09-11T13:21:00.956Z,100245.88
2022-09-11T13:24:30.507Z,100250.17
2022-09-11T13:28:01.605Z,100249.38
2022-09-11T13:31:35.862Z,100248.06
2022-09-11T13:35:08.217Z,100249.31
2022-09-11T13:38:38.810Z,100254.98
2022-09-11T13:42:07.731Z,100258.73
2022-09-11T13:45:34.982Z,100255.33
2022-09-11T13:49:27.315Z,100258.86
2022-09-11T13:52:56.313Z,100256.90
2022-09-11T13:56:45.894Z,100256.15
2022-09-11T14:00:43.052Z,100257.23
2022-09-11T14:04:13.118Z,100255.64
2022-09-11T14:07:47.962Z,100258.94
2022-09-11T14:11:27.869Z,100263.14
2022-09-11T14:15:02.025Z,100260.34
2022-09-11T14:18:35.034Z,100262.59
2022-09-11T14:22:15.554Z,100256.61
2022-09-11T14:26:02.984Z,100258.52
2022-09-11T14:29:31.888Z,100256.69
2022-09-11T14:33:24.868Z,100260.91
2022-09-11T14:37:00.355Z,100262.30
2022-09-11T14:40:27.365Z,100262.90
2022-09-11T14:43:56.889Z,100255.06
2022-09-11T14:47:31.789Z,100258.10
2022-09-11T14:51:02.417Z,100259.10
2022-09-11T14:54:33.408Z,100261.02
2022-09-11T14:58:22.297Z,100266.19
2022-09-11T15:01:52.600Z,100264.52
2022-09-11T15:05:23.263Z,100267.62
2022-09-11T15:08:50.303Z,100269.80
2022-09-11T15:12:17.917Z,100272.33
2022-09-11T15:15:45.573Z,100274.15
2022-09-11T15:19:13.071Z,100275.42
2022-09-11T15:22:42.035Z,100271.78
2022-09-11T15:26:13.257Z,100274.98
2022-09-11T15:29:42.928Z,100281.26
2022-09-11T15:33:13.681Z,100280.76
2022-09-11T15:36:45.812Z,100282.83
2022-09-11T15:40:16.377Z,100286.69
2022-09-11T15:43:50.850Z,100289.05
2022-09-11T15:47:17.674Z,100288.91
2022-09-11T15:50:45.163Z,100287.42
2022-09-11T15:54:16.204Z,100289.52
2022-09-11T16:01:32.508Z,100290.63
2022-09-11T16:05:02.740Z,100297.05
2022-09-11T16:08:30.543Z,100296.28
2022-09-11T16:12:00.461Z,100301.82
2022-09-11T16:15:27.899Z,100302.09
2022-09-11T16:18:55.708Z,100303.02
2022-09-11T16:22:26.125Z,100301.34
2022-09-11T16:25:56.056Z,100304.38
2022-09-11T16:29:37.809Z,100303.85
2022-09-11T16:33:15.240Z,100305.46
2022-09-11T16:36:45.072Z,100304.34
2022-09-11T16:40:13.675Z,100301.59
2022-09-11T16:43:46.236Z,100302.92
2022-09-11T16:47:13.709Z,100300.65
2022-09-11T16:50:42.204Z,100304.25
2022-09-11T16:54:14.346Z,100310.15
2022-09-11T16:57:44.751Z,100311.75
2022-09-11T17:01:16.272Z,100316.92
2022-09-11T17:04:52.065Z,100320.93
2022-09-11T17:08:23.968Z,100322.96
2022-09-11T17:11:51.991Z,100323.16
2022-09-11T17:15:25.185Z,100327.48
2022-09-11T17:18:57.147Z,100331.46
2022-09-11T17:22:24.332Z,100334.11
2022-09-11T17:25:52.402Z,100334.83
2022-09-11T17:29:20.251Z,100337.16
2022-09-11T17:32:48.229Z,100339.95
2022-09-11T17:36:18.094Z,100350.01
2022-09-11T17:39:51.320Z,100354.95
2022-09-11T17:43:21.482Z,100355.21
2022-09-11T17:46:48.267Z,100353.59
2022-09-11T17:50:16.506Z,100355.94
2022-09-11T17:53:46.670Z,100361.16
2022-09-11T17:57:16.354Z,100364.92
2022-09-11T18:00:46.073Z,100369.64
2022-09-11T18:04:14.968Z,100370.96
2022-09-11T18:07:42.079Z,100365.17
2022-09-11T18:11:09.918Z,100369.37
2022-09-11T18:14:40.329Z,100376.12
2022-09-11T18:18:10.347Z,100380.84
2022-09-11T18:21:38.485Z,100383.08
2022-09-11T18:25:09.744Z,100388.25
2022-09-11T18:28:40.936Z,100392.09
2022-09-11T18:32:10.135Z,100390.42
2022-09-11T18:35:38.685Z,100398.29
2022-09-11T18:39:07.201Z,100398.13
2022-09-11T18:42:34.460Z,100398.16
2022-09-11T18:46:04.901Z,100405.16
2022-09-11T18:49:33.919Z,100409.66
2022-09-11T18:53:01.058Z,100408.39
2022-09-11T18:56:31.529Z,100418.29
2022-09-11T19:00:00.173Z,100416.37
2022-09-11T19:03:29.027Z,100420.06
2022-09-11T19:06:56.712Z,100421.27
2022-09-11T19:10:24.075Z,100424.12
2022-09-11T19:13:53.423Z,100424.65
2022-09-11T19:17:21.739Z,100430.60
2022-09-11T19:21:00.434Z,100429.98
2022-09-11T19:24:30.523Z,100429.58
2022-09-11T19:28:00.179Z,100426.98
2022-09-11T19:31:33.000Z,100435.21
2022-09-11T19:35:00.677Z,100432.46
2022-09-11T19:38:28.736Z,100436.11
2022-09-11T19:41:56.236Z,100437.59
2022-09-11T19:45:24.319Z,100438.48
2022-09-11T19:48:54.469Z,100435.35
2022-09-11T19:52:24.511Z,100432.49
2022-09-11T19:55:56.647Z,100435.42
2022-09-11T19:59:23.994Z,100439.41
2022-09-11T20:02:55.019Z,100444.16
2022-09-11T20:06:32.498Z,100443.23
2022-09-11T20:10:00.459Z,100446.30
2022-09-11T20:13:28.243Z,100442.21
2022-09-11T20:16:55.417Z,100440.27
2022-09-11T20:20:23.275Z,100440.58
2022-09-11T20:23:55.708Z,100436.39
2022-09-11T20:27:22.812Z,100438.91
2022-09-11T20:30:51.630Z,100435.50
2022-09-11T20:34:19.849Z,100437.91
2022-09-11T20:37:47.827Z,100438.77
2022-09-11T20:41:17.604Z,100442.95
2022-09-11T20:44:45.625Z,100442.52
2022-09-11T20:48:12.314Z,100443.77
2022-09-11T20:51:44.662Z,100443.45
2022-09-11T20:55:12.823Z,100444.60
2022-09-11T20:58:44.443Z,100448.83
2022-09-11T21:02:15.041Z,100451.34
2022-09-11T21:05:42.738Z,100444.09
2022-09-11T21:09:11.434Z,100444.95
2022-09-11T21:12:38.341Z,100447.92
2022-09-11T21:16:09.167Z,100454.71
2022-09-11T21:19:36.684Z,100447.05
2022-09-11T21:23:04.722Z,100455.41
2022-09-11T21:26:33.406Z,100448.91
2022-09-11T21:30:00.459Z,100453.33
2022-09-11T21:33:27.708Z,100451.85
2022-09-11T21:36:55.580Z,100457.45
2022-09-11T21:40:24.096Z,100456.08
2022-09-11T21:44:04.133Z,100458.48
2022-09-11T21:47:31.822Z,100460.15
2022-09-11T21:51:06.585Z,100459.52
2022-09-11T21:54:34.959Z,100466.77
2022-09-11T21:58:02.604Z,100468.88
2022-09-11T22:01:37.164Z,100467.81
2022-09-11T22:05:07.966Z,100470.08
2022-09-11T22:08:38.910Z,100469.94
2022-09-11T22:12:07.214Z,100469.66
2022-09-11T22:15:42.197Z,100465.70
2022-09-11T22:19:09.801Z,100467.13
2022-09-11T22:22:40.363Z,100468.41
2022-09-11T22:26:18.112Z,100465.34
2022-09-11T22:29:47.118Z,100459.92
2022-09-11T22:33:15.016Z,100455.90
2022-09-11T22:36:42.694Z,100454.91
2022-09-11T22:40:12.260Z,100457.06
2022-09-11T22:43:39.729Z,100457.30
2022-09-11T22:47:09.813Z,100462.77
2022-09-11T22:50:41.148Z,100459.77
2022-09-11T22:54:14.248Z,100461.82
2022-09-11T22:57:44.291Z,100460.93
2022-09-11T23:01:15.494Z,100461.73
2022-09-11T23:05:04.758Z,100458.98
2022-09-11T23:08:38.410Z,100463.96
2022-09-11T23:12:06.864Z,100464.96
2022-09-11T23:15:34.596Z,100461.42
2022-09-11T23:19:05.424Z,100460.44
2022-09-11T23:22:40.077Z,100463.05
2022-09-11T23:26:12.359Z,100464.64
2022-09-11T23:29:39.204Z,100460.77
2022-09-11T23:33:06.435Z,100462.95
2022-09-11T23:36:34.618Z,100464.77
2022-09-11T23:40:01.979Z,100467.48
2022-09-11T23:43:29.373Z,100466.73
2022-09-11T23:46:56.392Z,100469.35
2022-09-11T23:50:26.296Z,100467.83
2022-09-11T23:53:53.596Z,100470.48
2022-09-11T23:57:20.342Z,100467.45
